Half Moon Bay, California
Current Conditions -  °F | °C
As of 6:15 AM on Monday 22 Dec 2014 (Local Time) from KHAF Reporting Station
Haze Haze  
Wind Chill: 57°   Ceiling: 400
Heat Index: 57°   Visibility: 5mi
Dew Point: 57°   Wind: 6mph
Humidity: 100%   Direction: 20°NNE
Pressure: 30.27"   Gusts: NA
Location:  37.46°N, 122.42°W
Report Text: KHAF 221415Z AUTO 02005KT 5SM BR OVC004 14/14 A3027 RMK AO2
Loading
Personal Weather Stations






























Interactive Weather Map New forecast layout! Learn more

10-Day Weather Forecast

Advertisements
Track Severe Weather on mobile